Vistas del Convento, Puerto Rico
Current Conditions -  °F | °C
As of 3:01 AM on Monday 22 Dec 2014 (Local Time) from TJNR Reporting Station
Broken Clouds Broken Clouds  
Wind Chill: 74°   Ceiling: 2600
Heat Index: 74°   Visibility: 10mi
Dew Point: 69°   Wind: 5mph
Humidity: 85%   Direction: 330°NNW
Pressure: 30.04"   Gusts: NA
Location:  18.3304°N, 65.6573°W
Report Text: TJNR 220701Z AUTO 33004KT 10SM BKN026 23/21 A3004 RMK AO2 T02330206 $
Loading
Personal Weather Stations






























Interactive Weather Map New forecast layout! Learn more

10-Day Weather Forecast

Advertisements
Track Severe Weather on mobile